sensor_id;sensor_type;location;lat;lon;timestamp;P1;durP1;ratioP1;P2;durP2;ratioP2
14474;SDS011;7323;50.848;4.334;2023-03-01T00:01:05;10.97;;;7.63;;
14474;SDS011;7323;50.848;4.334;2023-03-01T00:03:48;16.03;;;8.10;;
14474;SDS011;7323;50.848;4.334;2023-03-01T00:06:24;9.43;;;8.00;;
14474;SDS011;7323;50.848;4.334;2023-03-01T00:08:53;9.80;;;7.87;;
14474;SDS011;7323;50.848;4.334;2023-03-01T00:11:24;10.53;;;8.83;;
14474;SDS011;7323;50.848;4.334;2023-03-01T00:13:56;11.00;;;8.37;;
14474;SDS011;7323;50.848;4.334;2023-03-01T00:16:25;10.80;;;8.00;;
14474;SDS011;7323;50.848;4.334;2023-03-01T00:21:28;8.47;;;7.57;;
14474;SDS011;7323;50.848;4.334;2023-03-01T00:23:53;10.30;;;7.43;;
14474;SDS011;7323;50.848;4.334;2023-03-01T00:26:21;10.63;;;8.63;;
14474;SDS011;7323;50.848;4.334;2023-03-01T00:28:50;9.23;;;7.13;;
14474;SDS011;7323;50.848;4.334;2023-03-01T00:31:21;8.50;;;7.60;;
14474;SDS011;7323;50.848;4.334;2023-03-01T00:33:48;8.57;;;7.27;;
14474;SDS011;7323;50.848;4.334;2023-03-01T00:36:36;11.93;;;7.93;;
14474;SDS011;7323;50.848;4.334;2023-03-01T00:39:04;8.73;;;6.97;;
14474;SDS011;7323;50.848;4.334;2023-03-01T00:41:39;8.20;;;6.97;;
14474;SDS011;7323;50.848;4.334;2023-03-01T00:44:21;9.27;;;7.77;;
14474;SDS011;7323;50.848;4.334;2023-03-01T00:46:47;11.07;;;7.27;;
14474;SDS011;7323;50.848;4.334;2023-03-01T00:49:12;8.73;;;7.20;;
14474;SDS011;7323;50.848;4.334;2023-03-01T00:51:45;11.20;;;7.37;;
14474;SDS011;7323;50.848;4.334;2023-03-01T00:54:10;9.43;;;7.17;;
14474;SDS011;7323;50.848;4.334;2023-03-01T00:56:36;9.27;;;6.93;;
14474;SDS011;7323;50.848;4.334;2023-03-01T00:59:02;8.80;;;7.63;;
14474;SDS011;7323;50.848;4.334;2023-03-01T01:01:28;10.43;;;7.67;;
14474;SDS011;7323;50.848;4.334;2023-03-01T01:03:57;9.33;;;6.60;;
14474;SDS011;7323;50.848;4.334;2023-03-01T01:06:36;8.33;;;6.80;;
14474;SDS011;7323;50.848;4.334;2023-03-01T01:09:05;10.03;;;7.80;;
14474;SDS011;7323;50.848;4.334;2023-03-01T01:16:36;10.90;;;7.70;;
14474;SDS011;7323;50.848;4.334;2023-03-01T01:19:02;9.57;;;6.87;;
14474;SDS011;7323;50.848;4.334;2023-03-01T01:21:29;10.17;;;6.93;;
14474;SDS011;7323;50.848;4.334;2023-03-01T01:23:55;9.20;;;6.87;;
14474;SDS011;7323;50.848;4.334;2023-03-01T01:26:23;10.20;;;7.10;;
14474;SDS011;7323;50.848;4.334;2023-03-01T01:28:51;8.17;;;7.27;;
14474;SDS011;7323;50.848;4.334;2023-03-01T01:31:22;7.73;;;6.93;;
14474;SDS011;7323;50.848;4.334;2023-03-01T01:33:50;9.70;;;7.53;;
14474;SDS011;7323;50.848;4.334;2023-03-01T01:36:17;9.57;;;7.07;;
14474;SDS011;7323;50.848;4.334;2023-03-01T01:38:43;11.87;;;8.87;;
14474;SDS011;7323;50.848;4.334;2023-03-01T01:41:17;9.57;;;7.10;;
14474;SDS011;7323;50.848;4.334;2023-03-01T01:43:45;12.17;;;7.60;;
14474;SDS011;7323;50.848;4.334;2023-03-01T01:46:19;9.27;;;6.97;;
14474;SDS011;7323;50.848;4.334;2023-03-01T01:49:00;10.93;;;7.07;;
14474;SDS011;7323;50.848;4.334;2023-03-01T01:51:40;8.77;;;7.00;;
14474;SDS011;7323;50.848;4.334;2023-03-01T01:54:09;9.00;;;7.43;;
14474;SDS011;7323;50.848;4.334;2023-03-01T01:56:42;9.53;;;7.60;;
14474;SDS011;7323;50.848;4.334;2023-03-01T01:59:13;10.80;;;7.50;;
14474;SDS011;7323;50.848;4.334;2023-03-01T02:01:43;12.00;;;7.27;;
14474;SDS011;7323;50.848;4.334;2023-03-01T02:04:10;11.33;;;7.53;;
14474;SDS011;7323;50.848;4.334;2023-03-01T02:06:44;11.57;;;7.67;;
14474;SDS011;7323;50.848;4.334;2023-03-01T02:09:22;10.23;;;7.80;;
14474;SDS011;7323;50.848;4.334;2023-03-01T02:11:52;9.43;;;7.40;;
14474;SDS011;7323;50.848;4.334;2023-03-01T02:14:19;9.30;;;7.10;;
14474;SDS011;7323;50.848;4.334;2023-03-01T02:16:45;9.50;;;7.53;;
14474;SDS011;7323;50.848;4.334;2023-03-01T02:19:14;9.53;;;7.83;;
14474;SDS011;7323;50.848;4.334;2023-03-01T02:22:18;10.00;;;7.70;;
14474;SDS011;7323;50.848;4.334;2023-03-01T02:33:36;8.50;;;6.97;;
14474;SDS011;7323;50.848;4.334;2023-03-01T02:36:04;9.17;;;7.37;;
14474;SDS011;7323;50.848;4.334;2023-03-01T02:38:34;9.83;;;6.83;;
14474;SDS011;7323;50.848;4.334;2023-03-01T02:41:01;10.07;;;7.33;;
14474;SDS011;7323;50.848;4.334;2023-03-01T02:43:30;12.00;;;7.67;;
14474;SDS011;7323;50.848;4.334;2023-03-01T02:45:59;9.73;;;7.00;;
14474;SDS011;7323;50.848;4.334;2023-03-01T02:48:45;8.93;;;7.20;;
14474;SDS011;7323;50.848;4.334;2023-03-01T02:56:42;10.10;;;7.57;;
14474;SDS011;7323;50.848;4.334;2023-03-01T02:59:09;11.50;;;7.73;;
14474;SDS011;7323;50.848;4.334;2023-03-01T03:01:41;10.60;;;7.67;;
14474;SDS011;7323;50.848;4.334;2023-03-01T03:04:08;12.07;;;8.07;;
14474;SDS011;7323;50.848;4.334;2023-03-01T03:06:37;8.63;;;6.90;;
14474;SDS011;7323;50.848;4.334;2023-03-01T03:09:03;8.67;;;7.60;;
14474;SDS011;7323;50.848;4.334;2023-03-01T03:11:29;10.87;;;7.50;;
14474;SDS011;7323;50.848;4.334;2023-03-01T03:13:55;9.67;;;7.90;;
14474;SDS011;7323;50.848;4.334;2023-03-01T03:16:23;9.30;;;8.00;;
14474;SDS011;7323;50.848;4.334;2023-03-01T03:18:49;11.20;;;7.53;;
14474;SDS011;7323;50.848;4.334;2023-03-01T03:21:15;10.10;;;7.70;;
14474;SDS011;7323;50.848;4.334;2023-03-01T03:23:41;9.30;;;7.93;;
14474;SDS011;7323;50.848;4.334;2023-03-01T03:26:09;8.67;;;7.50;;
14474;SDS011;7323;50.848;4.334;2023-03-01T03:28:38;10.03;;;8.00;;
14474;SDS011;7323;50.848;4.334;2023-03-01T03:31:05;8.67;;;7.10;;
14474;SDS011;7323;50.848;4.334;2023-03-01T03:33:34;8.30;;;7.37;;
14474;SDS011;7323;50.848;4.334;2023-03-01T03:36:00;10.17;;;7.97;;
14474;SDS011;7323;50.848;4.334;2023-03-01T03:38:26;10.27;;;8.20;;
14474;SDS011;7323;50.848;4.334;2023-03-01T03:40:58;10.50;;;7.63;;
14474;SDS011;7323;50.848;4.334;2023-03-01T03:43:27;13.47;;;8.20;;
14474;SDS011;7323;50.848;4.334;2023-03-01T03:45:53;11.10;;;7.40;;
14474;SDS011;7323;50.848;4.334;2023-03-01T03:48:19;9.63;;;7.90;;
14474;SDS011;7323;50.848;4.334;2023-03-01T03:50:53;13.60;;;8.10;;
14474;SDS011;7323;50.848;4.334;2023-03-01T03:53:21;10.30;;;7.70;;
14474;SDS011;7323;50.848;4.334;2023-03-01T03:58:53;11.43;;;7.53;;
14474;SDS011;7323;50.848;4.334;2023-03-01T04:01:19;9.63;;;7.90;;
14474;SDS011;7323;50.848;4.334;2023-03-01T04:03:45;9.73;;;7.37;;
14474;SDS011;7323;50.848;4.334;2023-03-01T04:06:21;10.33;;;7.47;;
14474;SDS011;7323;50.848;4.334;2023-03-01T04:08:47;8.87;;;7.47;;
14474;SDS011;7323;50.848;4.334;2023-03-01T04:11:16;11.20;;;7.97;;
14474;SDS011;7323;50.848;4.334;2023-03-01T04:13:54;9.93;;;8.63;;
14474;SDS011;7323;50.848;4.334;2023-03-01T04:16:22;10.40;;;8.40;;
14474;SDS011;7323;50.848;4.334;2023-03-01T04:18:48;13.50;;;8.97;;
14474;SDS011;7323;50.848;4.334;2023-03-01T04:21:14;11.80;;;8.20;;
14474;SDS011;7323;50.848;4.334;2023-03-01T04:29:07;11.13;;;8.43;;
14474;SDS011;7323;50.848;4.334;2023-03-01T04:31:34;12.53;;;8.30;;
14474;SDS011;7323;50.848;4.334;2023-03-01T04:34:00;11.63;;;8.50;;
14474;SDS011;7323;50.848;4.334;2023-03-01T04:36:27;11.07;;;9.03;;
14474;SDS011;7323;50.848;4.334;2023-03-01T04:38:55;10.73;;;8.97;;
14474;SDS011;7323;50.848;4.334;2023-03-01T04:41:23;11.23;;;8.67;;
14474;SDS011;7323;50.848;4.334;2023-03-01T04:43:54;13.13;;;8.63;;
14474;SDS011;7323;50.848;4.334;2023-03-01T04:46:20;11.10;;;7.80;;
14474;SDS011;7323;50.848;4.334;2023-03-01T04:48:46;11.17;;;8.37;;
14474;SDS011;7323;50.848;4.334;2023-03-01T04:51:14;13.67;;;9.10;;
14474;SDS011;7323;50.848;4.334;2023-03-01T04:53:41;10.93;;;8.43;;
14474;SDS011;7323;50.848;4.334;2023-03-01T04:56:07;11.83;;;9.50;;
14474;SDS011;7323;50.848;4.334;2023-03-01T04:58:33;14.53;;;10.00;;
14474;SDS011;7323;50.848;4.334;2023-03-01T05:00:59;12.23;;;8.33;;
14474;SDS011;7323;50.848;4.334;2023-03-01T05:03:25;11.13;;;8.33;;
14474;SDS011;7323;50.848;4.334;2023-03-01T05:05:51;11.33;;;8.53;;
14474;SDS011;7323;50.848;4.334;2023-03-01T05:08:17;10.13;;;8.57;;
14474;SDS011;7323;50.848;4.334;2023-03-01T05:10:51;10.93;;;8.30;;
14474;SDS011;7323;50.848;4.334;2023-03-01T05:13:18;12.93;;;8.37;;
14474;SDS011;7323;50.848;4.334;2023-03-01T05:15:55;11.17;;;8.17;;
14474;SDS011;7323;50.848;4.334;2023-03-01T05:18:23;9.87;;;8.30;;
14474;SDS011;7323;50.848;4.334;2023-03-01T05:20:54;12.23;;;7.67;;
14474;SDS011;7323;50.848;4.334;2023-03-01T05:23:23;12.83;;;7.73;;
14474;SDS011;7323;50.848;4.334;2023-03-01T05:25:50;11.07;;;8.53;;
14474;SDS011;7323;50.848;4.334;2023-03-01T05:28:17;12.13;;;9.00;;
14474;SDS011;7323;50.848;4.334;2023-03-01T05:30:50;9.97;;;8.13;;
14474;SDS011;7323;50.848;4.334;2023-03-01T05:33:16;16.40;;;9.57;;
14474;SDS011;7323;50.848;4.334;2023-03-01T05:35:44;11.40;;;8.47;;
14474;SDS011;7323;50.848;4.334;2023-03-01T05:38:10;10.60;;;7.77;;
14474;SDS011;7323;50.848;4.334;2023-03-01T05:40:47;11.33;;;8.73;;
14474;SDS011;7323;50.848;4.334;2023-03-01T05:46:24;13.90;;;8.10;;
14474;SDS011;7323;50.848;4.334;2023-03-01T05:48:50;12.10;;;8.63;;
14474;SDS011;7323;50.848;4.334;2023-03-01T05:51:16;10.57;;;7.83;;
14474;SDS011;7323;50.848;4.334;2023-03-01T05:53:43;14.23;;;8.90;;
14474;SDS011;7323;50.848;4.334;2023-03-01T05:56:08;13.17;;;8.60;;
14474;SDS011;7323;50.848;4.334;2023-03-01T05:58:35;11.73;;;8.37;;
14474;SDS011;7323;50.848;4.334;2023-03-01T06:01:04;12.47;;;8.83;;
14474;SDS011;7323;50.848;4.334;2023-03-01T06:03:29;12.97;;;8.37;;
14474;SDS011;7323;50.848;4.334;2023-03-01T06:05:56;13.33;;;8.67;;
14474;SDS011;7323;50.848;4.334;2023-03-01T06:08:22;9.73;;;7.43;;
14474;SDS011;7323;50.848;4.334;2023-03-01T06:10:49;12.87;;;8.43;;
14474;SDS011;7323;50.848;4.334;2023-03-01T06:13:14;10.80;;;8.53;;
14474;SDS011;7323;50.848;4.334;2023-03-01T06:15:40;13.30;;;8.77;;
14474;SDS011;7323;50.848;4.334;2023-03-01T06:18:09;10.83;;;8.50;;
14474;SDS011;7323;50.848;4.334;2023-03-01T06:20:38;13.93;;;8.00;;
14474;SDS011;7323;50.848;4.334;2023-03-01T06:23:03;11.77;;;8.20;;
14474;SDS011;7323;50.848;4.334;2023-03-01T06:25:29;12.17;;;7.87;;
14474;SDS011;7323;50.848;4.334;2023-03-01T06:27:55;8.73;;;6.87;;
14474;SDS011;7323;50.848;4.334;2023-03-01T06:30:24;11.53;;;7.73;;
14474;SDS011;7323;50.848;4.334;2023-03-01T06:32:51;10.57;;;7.67;;
14474;SDS011;7323;50.848;4.334;2023-03-01T06:35:17;12.23;;;8.57;;
14474;SDS011;7323;50.848;4.334;2023-03-01T06:37:44;11.10;;;8.27;;
14474;SDS011;7323;50.848;4.334;2023-03-01T06:40:11;11.13;;;8.40;;
14474;SDS011;7323;50.848;4.334;2023-03-01T06:45:21;13.30;;;8.87;;
14474;SDS011;7323;50.848;4.334;2023-03-01T06:47:47;11.00;;;7.83;;
14474;SDS011;7323;50.848;4.334;2023-03-01T06:50:19;11.87;;;8.43;;
14474;SDS011;7323;50.848;4.334;2023-03-01T06:52:45;13.10;;;9.00;;
14474;SDS011;7323;50.848;4.334;2023-03-01T06:55:12;15.30;;;8.77;;
14474;SDS011;7323;50.848;4.334;2023-03-01T06:57:39;13.20;;;8.63;;
14474;SDS011;7323;50.848;4.334;2023-03-01T07:00:17;15.07;;;8.00;;
14474;SDS011;7323;50.848;4.334;2023-03-01T07:02:57;12.23;;;8.33;;
14474;SDS011;7323;50.848;4.334;2023-03-01T07:05:37;15.00;;;8.33;;
14474;SDS011;7323;50.848;4.334;2023-03-01T07:08:03;13.57;;;9.00;;
14474;SDS011;7323;50.848;4.334;2023-03-01T07:10:28;11.00;;;7.37;;
14474;SDS011;7323;50.848;4.334;2023-03-01T07:12:56;9.30;;;7.10;;
14474;SDS011;7323;50.848;4.334;2023-03-01T07:15:22;10.53;;;8.07;;
14474;SDS011;7323;50.848;4.334;2023-03-01T07:17:49;13.43;;;7.87;;
14474;SDS011;7323;50.848;4.334;2023-03-01T07:20:16;12.70;;;7.63;;
14474;SDS011;7323;50.848;4.334;2023-03-01T07:22:45;12.90;;;9.10;;
14474;SDS011;7323;50.848;4.334;2023-03-01T07:27:48;13.00;;;8.33;;
14474;SDS011;7323;50.848;4.334;2023-03-01T07:30:14;23.00;;;8.33;;
14474;SDS011;7323;50.848;4.334;2023-03-01T07:32:40;10.20;;;8.33;;
14474;SDS011;7323;50.848;4.334;2023-03-01T07:35:10;14.10;;;8.30;;
14474;SDS011;7323;50.848;4.334;2023-03-01T07:37:36;16.70;;;9.40;;
14474;SDS011;7323;50.848;4.334;2023-03-01T07:42:32;10.17;;;7.83;;
14474;SDS011;7323;50.848;4.334;2023-03-01T07:44:59;14.17;;;8.73;;
14474;SDS011;7323;50.848;4.334;2023-03-01T07:47:24;12.80;;;8.67;;
14474;SDS011;7323;50.848;4.334;2023-03-01T07:49:51;12.17;;;7.23;;
14474;SDS011;7323;50.848;4.334;2023-03-01T07:52:18;9.63;;;8.20;;
14474;SDS011;7323;50.848;4.334;2023-03-01T07:54:43;12.67;;;8.17;;
14474;SDS011;7323;50.848;4.334;2023-03-01T07:57:12;15.77;;;8.70;;
14474;SDS011;7323;50.848;4.334;2023-03-01T07:59:39;13.57;;;9.10;;
14474;SDS011;7323;50.848;4.334;2023-03-01T08:02:20;13.73;;;9.77;;
14474;SDS011;7323;50.848;4.334;2023-03-01T08:08:11;15.50;;;8.77;;
14474;SDS011;7323;50.848;4.334;2023-03-01T08:10:37;13.80;;;9.90;;
14474;SDS011;7323;50.848;4.334;2023-03-01T08:13:04;15.63;;;9.50;;
14474;SDS011;7323;50.848;4.334;2023-03-01T08:15:31;12.73;;;8.60;;
14474;SDS011;7323;50.848;4.334;2023-03-01T08:17:57;13.73;;;9.53;;
14474;SDS011;7323;50.848;4.334;2023-03-01T08:20:22;14.20;;;9.87;;
14474;SDS011;7323;50.848;4.334;2023-03-01T08:22:48;12.40;;;8.93;;
14474;SDS011;7323;50.848;4.334;2023-03-01T08:25:14;12.23;;;9.10;;
14474;SDS011;7323;50.848;4.334;2023-03-01T08:27:39;15.73;;;9.93;;
14474;SDS011;7323;50.848;4.334;2023-03-01T08:30:05;15.63;;;9.43;;
14474;SDS011;7323;50.848;4.334;2023-03-01T08:32:37;13.30;;;8.93;;
14474;SDS011;7323;50.848;4.334;2023-03-01T08:35:05;11.90;;;8.57;;
14474;SDS011;7323;50.848;4.334;2023-03-01T08:37:32;11.10;;;9.50;;
14474;SDS011;7323;50.848;4.334;2023-03-01T08:39:58;15.00;;;9.27;;
14474;SDS011;7323;50.848;4.334;2023-03-01T08:42:26;14.07;;;10.03;;
14474;SDS011;7323;50.848;4.334;2023-03-01T08:44:54;11.90;;;8.70;;
14474;SDS011;7323;50.848;4.334;2023-03-01T08:47:19;13.67;;;9.20;;
14474;SDS011;7323;50.848;4.334;2023-03-01T08:49:45;12.27;;;9.87;;
14474;SDS011;7323;50.848;4.334;2023-03-01T08:52:17;13.33;;;8.90;;
14474;SDS011;7323;50.848;4.334;2023-03-01T08:54:44;14.67;;;8.70;;
14474;SDS011;7323;50.848;4.334;2023-03-01T08:57:13;15.50;;;8.97;;
14474;SDS011;7323;50.848;4.334;2023-03-01T08:59:40;13.07;;;9.47;;
14474;SDS011;7323;50.848;4.334;2023-03-01T09:02:10;14.37;;;8.97;;
14474;SDS011;7323;50.848;4.334;2023-03-01T09:04:37;12.27;;;9.13;;
14474;SDS011;7323;50.848;4.334;2023-03-01T09:07:03;12.00;;;8.80;;
14474;SDS011;7323;50.848;4.334;2023-03-01T09:09:31;13.13;;;8.93;;
14474;SDS011;7323;50.848;4.334;2023-03-01T09:11:59;14.37;;;9.80;;
14474;SDS011;7323;50.848;4.334;2023-03-01T09:14:28;14.20;;;9.07;;
14474;SDS011;7323;50.848;4.334;2023-03-01T09:19:23;12.60;;;8.73;;
14474;SDS011;7323;50.848;4.334;2023-03-01T09:21:53;12.67;;;8.70;;
14474;SDS011;7323;50.848;4.334;2023-03-01T09:24:23;12.20;;;8.83;;
14474;SDS011;7323;50.848;4.334;2023-03-01T09:29:23;22.20;;;10.50;;
14474;SDS011;7323;50.848;4.334;2023-03-01T09:31:53;17.30;;;9.30;;
14474;SDS011;7323;50.848;4.334;2023-03-01T09:36:51;12.37;;;9.33;;
14474;SDS011;7323;50.848;4.334;2023-03-01T09:39:19;14.90;;;8.60;;
14474;SDS011;7323;50.848;4.334;2023-03-01T09:46:55;12.70;;;9.27;;
14474;SDS011;7323;50.848;4.334;2023-03-01T09:49:25;14.07;;;9.60;;
14474;SDS011;7323;50.848;4.334;2023-03-01T09:54:54;10.10;;;8.97;;
14474;SDS011;7323;50.848;4.334;2023-03-01T09:57:28;12.20;;;7.00;;
14474;SDS011;7323;50.848;4.334;2023-03-01T10:00:43;11.97;;;9.77;;
14474;SDS011;7323;50.848;4.334;2023-03-01T10:03:23;13.77;;;9.93;;
14474;SDS011;7323;50.848;4.334;2023-03-01T10:06:14;14.70;;;10.13;;
14474;SDS011;7323;50.848;4.334;2023-03-01T10:11:45;14.10;;;8.90;;
14474;SDS011;7323;50.848;4.334;2023-03-01T10:14:35;11.73;;;8.87;;
14474;SDS011;7323;50.848;4.334;2023-03-01T10:17:03;13.40;;;10.03;;
14474;SDS011;7323;50.848;4.334;2023-03-01T10:19:46;13.47;;;9.70;;
14474;SDS011;7323;50.848;4.334;2023-03-01T10:24:53;11.10;;;8.20;;
14474;SDS011;7323;50.848;4.334;2023-03-01T10:27:22;13.50;;;9.10;;
14474;SDS011;7323;50.848;4.334;2023-03-01T10:35:20;14.43;;;8.97;;
14474;SDS011;7323;50.848;4.334;2023-03-01T10:40:49;12.57;;;9.00;;
14474;SDS011;7323;50.848;4.334;2023-03-01T10:43:16;12.77;;;9.73;;
14474;SDS011;7323;50.848;4.334;2023-03-01T10:45:42;12.17;;;8.37;;
14474;SDS011;7323;50.848;4.334;2023-03-01T10:50:45;12.60;;;9.03;;
14474;SDS011;7323;50.848;4.334;2023-03-01T10:53:21;12.90;;;9.03;;
14474;SDS011;7323;50.848;4.334;2023-03-01T10:58:30;11.50;;;7.80;;
14474;SDS011;7323;50.848;4.334;2023-03-01T11:01:03;10.60;;;8.60;;
14474;SDS011;7323;50.848;4.334;2023-03-01T11:03:42;11.37;;;8.97;;
14474;SDS011;7323;50.848;4.334;2023-03-01T11:08:47;11.00;;;8.53;;
14474;SDS011;7323;50.848;4.334;2023-03-01T11:14:12;12.63;;;7.27;;
14474;SDS011;7323;50.848;4.334;2023-03-01T11:16:48;11.43;;;8.00;;
14474;SDS011;7323;50.848;4.334;2023-03-01T11:19:23;11.83;;;9.07;;
14474;SDS011;7323;50.848;4.334;2023-03-01T11:24:48;11.23;;;8.77;;
14474;SDS011;7323;50.848;4.334;2023-03-01T11:35:37;11.67;;;8.33;;
14474;SDS011;7323;50.848;4.334;2023-03-01T11:46:36;13.03;;;8.33;;
14474;SDS011;7323;50.848;4.334;2023-03-01T11:49:40;11.60;;;8.30;;
14474;SDS011;7323;50.848;4.334;2023-03-01T11:52:18;10.10;;;8.73;;
14474;SDS011;7323;50.848;4.334;2023-03-01T12:06:26;8.90;;;7.77;;
14474;SDS011;7323;50.848;4.334;2023-03-01T12:09:35;10.87;;;8.40;;
14474;SDS011;7323;50.848;4.334;2023-03-01T12:15:05;10.57;;;8.77;;
14474;SDS011;7323;50.848;4.334;2023-03-01T12:26:35;12.90;;;8.67;;
14474;SDS011;7323;50.848;4.334;2023-03-01T12:29:23;11.60;;;7.90;;
14474;SDS011;7323;50.848;4.334;2023-03-01T12:32:13;11.33;;;7.57;;
14474;SDS011;7323;50.848;4.334;2023-03-01T12:51:32;11.77;;;7.63;;
14474;SDS011;7323;50.848;4.334;2023-03-01T12:54:02;10.23;;;7.10;;
14474;SDS011;7323;50.848;4.334;2023-03-01T12:56:40;10.33;;;7.30;;
14474;SDS011;7323;50.848;4.334;2023-03-01T13:05:00;10.10;;;7.90;;
14474;SDS011;7323;50.848;4.334;2023-03-01T13:07:52;10.57;;;7.57;;
14474;SDS011;7323;50.848;4.334;2023-03-01T13:10:33;11.00;;;7.17;;
14474;SDS011;7323;50.848;4.334;2023-03-01T13:15:46;14.10;;;8.07;;
14474;SDS011;7323;50.848;4.334;2023-03-01T13:23:30;9.80;;;7.63;;
14474;SDS011;7323;50.848;4.334;2023-03-01T13:26:04;11.70;;;8.37;;
14474;SDS011;7323;50.848;4.334;2023-03-01T13:28:48;10.83;;;7.80;;
14474;SDS011;7323;50.848;4.334;2023-03-01T13:34:00;12.00;;;7.57;;
14474;SDS011;7323;50.848;4.334;2023-03-01T13:41:54;10.87;;;8.00;;
14474;SDS011;7323;50.848;4.334;2023-03-01T13:49:43;10.03;;;7.70;;
14474;SDS011;7323;50.848;4.334;2023-03-01T13:58:23;9.60;;;7.77;;
14474;SDS011;7323;50.848;4.334;2023-03-01T14:03:33;13.33;;;8.70;;
14474;SDS011;7323;50.848;4.334;2023-03-01T14:08:36;13.30;;;7.73;;
14474;SDS011;7323;50.848;4.334;2023-03-01T14:11:16;10.30;;;7.80;;
14474;SDS011;7323;50.848;4.334;2023-03-01T14:17:09;11.57;;;7.77;;
14474;SDS011;7323;50.848;4.334;2023-03-01T14:20:41;10.67;;;7.40;;
14474;SDS011;7323;50.848;4.334;2023-03-01T14:22:59;10.67;;;6.93;;
14474;SDS011;7323;50.848;4.334;2023-03-01T14:28:51;12.60;;;8.23;;
14474;SDS011;7323;50.848;4.334;2023-03-01T14:31:32;10.20;;;7.97;;
14474;SDS011;7323;50.848;4.334;2023-03-01T14:34:21;9.50;;;7.60;;
14474;SDS011;7323;50.848;4.334;2023-03-01T14:36:49;9.90;;;6.53;;
14474;SDS011;7323;50.848;4.334;2023-03-01T14:39:24;11.17;;;7.67;;
14474;SDS011;7323;50.848;4.334;2023-03-01T14:41:53;10.73;;;8.60;;
14474;SDS011;7323;50.848;4.334;2023-03-01T14:44:22;12.33;;;8.13;;
14474;SDS011;7323;50.848;4.334;2023-03-01T14:46:55;11.43;;;8.37;;
14474;SDS011;7323;50.848;4.334;2023-03-01T14:49:29;9.07;;;7.17;;
14474;SDS011;7323;50.848;4.334;2023-03-01T14:52:01;13.10;;;8.53;;
14474;SDS011;7323;50.848;4.334;2023-03-01T14:54:37;11.43;;;9.37;;
14474;SDS011;7323;50.848;4.334;2023-03-01T14:59:43;9.60;;;7.73;;
14474;SDS011;7323;50.848;4.334;2023-03-01T15:02:15;12.63;;;9.00;;
14474;SDS011;7323;50.848;4.334;2023-03-01T15:04:48;10.87;;;7.83;;
14474;SDS011;7323;50.848;4.334;2023-03-01T15:07:16;10.77;;;8.23;;
14474;SDS011;7323;50.848;4.334;2023-03-01T15:09:42;12.97;;;8.87;;
14474;SDS011;7323;50.848;4.334;2023-03-01T15:17:36;11.17;;;8.10;;
14474;SDS011;7323;50.848;4.334;2023-03-01T15:22:45;11.93;;;8.50;;
14474;SDS011;7323;50.848;4.334;2023-03-01T15:25:16;10.30;;;8.43;;
14474;SDS011;7323;50.848;4.334;2023-03-01T15:27:48;9.07;;;8.13;;
14474;SDS011;7323;50.848;4.334;2023-03-01T15:30:21;12.07;;;7.93;;
14474;SDS011;7323;50.848;4.334;2023-03-01T15:33:15;11.27;;;8.07;;
14474;SDS011;7323;50.848;4.334;2023-03-01T15:36:03;11.77;;;7.73;;
14474;SDS011;7323;50.848;4.334;2023-03-01T15:38:51;11.73;;;7.90;;
14474;SDS011;7323;50.848;4.334;2023-03-01T15:41:27;12.10;;;8.67;;
14474;SDS011;7323;50.848;4.334;2023-03-01T15:43:55;11.40;;;9.10;;
14474;SDS011;7323;50.848;4.334;2023-03-01T15:46:35;12.43;;;8.50;;
14474;SDS011;7323;50.848;4.334;2023-03-01T15:49:03;10.70;;;8.07;;
14474;SDS011;7323;50.848;4.334;2023-03-01T15:51:47;11.00;;;8.30;;
14474;SDS011;7323;50.848;4.334;2023-03-01T15:54:20;10.97;;;8.53;;
14474;SDS011;7323;50.848;4.334;2023-03-01T15:59:29;12.40;;;7.70;;
14474;SDS011;7323;50.848;4.334;2023-03-01T16:05:06;10.10;;;7.30;;
14474;SDS011;7323;50.848;4.334;2023-03-01T16:07:46;11.17;;;7.60;;
14474;SDS011;7323;50.848;4.334;2023-03-01T16:10:15;10.77;;;8.20;;
14474;SDS011;7323;50.848;4.334;2023-03-01T16:12:43;9.67;;;8.40;;
14474;SDS011;7323;50.848;4.334;2023-03-01T16:15:21;11.20;;;8.70;;
14474;SDS011;7323;50.848;4.334;2023-03-01T16:17:52;10.17;;;6.97;;
14474;SDS011;7323;50.848;4.334;2023-03-01T16:20:26;10.13;;;7.37;;
14474;SDS011;7323;50.848;4.334;2023-03-01T16:22:53;11.53;;;8.40;;
14474;SDS011;7323;50.848;4.334;2023-03-01T16:27:50;10.13;;;7.83;;
14474;SDS011;7323;50.848;4.334;2023-03-01T16:33:17;10.10;;;7.20;;
14474;SDS011;7323;50.848;4.334;2023-03-01T16:35:44;11.60;;;7.73;;
14474;SDS011;7323;50.848;4.334;2023-03-01T16:38:17;9.97;;;7.10;;
14474;SDS011;7323;50.848;4.334;2023-03-01T16:40:46;11.30;;;7.77;;
14474;SDS011;7323;50.848;4.334;2023-03-01T16:43:16;9.20;;;6.50;;
14474;SDS011;7323;50.848;4.334;2023-03-01T16:45:43;11.43;;;7.60;;
14474;SDS011;7323;50.848;4.334;2023-03-01T16:48:14;8.40;;;7.43;;
14474;SDS011;7323;50.848;4.334;2023-03-01T16:50:39;9.47;;;7.23;;
14474;SDS011;7323;50.848;4.334;2023-03-01T16:53:08;12.07;;;7.53;;
14474;SDS011;7323;50.848;4.334;2023-03-01T16:55:35;9.13;;;7.47;;
14474;SDS011;7323;50.848;4.334;2023-03-01T16:58:02;9.80;;;7.53;;
14474;SDS011;7323;50.848;4.334;2023-03-01T17:00:30;10.40;;;6.93;;
14474;SDS011;7323;50.848;4.334;2023-03-01T17:02:56;10.60;;;7.00;;
14474;SDS011;7323;50.848;4.334;2023-03-01T17:05:22;11.10;;;7.83;;
14474;SDS011;7323;50.848;4.334;2023-03-01T17:07:50;11.63;;;7.00;;
14474;SDS011;7323;50.848;4.334;2023-03-01T17:12:48;14.50;;;7.23;;
14474;SDS011;7323;50.848;4.334;2023-03-01T17:15:20;7.73;;;6.40;;
14474;SDS011;7323;50.848;4.334;2023-03-01T17:17:49;9.00;;;6.87;;
14474;SDS011;7323;50.848;4.334;2023-03-01T17:20:16;8.90;;;6.77;;
14474;SDS011;7323;50.848;4.334;2023-03-01T17:22:53;8.80;;;6.83;;
14474;SDS011;7323;50.848;4.334;2023-03-01T17:25:19;9.07;;;6.90;;
14474;SDS011;7323;50.848;4.334;2023-03-01T17:27:45;9.70;;;6.60;;
14474;SDS011;7323;50.848;4.334;2023-03-01T17:30:11;13.43;;;7.93;;
14474;SDS011;7323;50.848;4.334;2023-03-01T17:32:44;8.03;;;6.70;;
14474;SDS011;7323;50.848;4.334;2023-03-01T17:35:10;10.93;;;7.00;;
14474;SDS011;7323;50.848;4.334;2023-03-01T17:37:36;8.97;;;6.60;;
14474;SDS011;7323;50.848;4.334;2023-03-01T17:40:04;10.40;;;6.93;;
14474;SDS011;7323;50.848;4.334;2023-03-01T17:42:31;7.90;;;6.13;;
14474;SDS011;7323;50.848;4.334;2023-03-01T17:44:58;9.43;;;6.90;;
14474;SDS011;7323;50.848;4.334;2023-03-01T17:47:24;10.17;;;7.50;;
14474;SDS011;7323;50.848;4.334;2023-03-01T17:49:55;10.90;;;7.30;;
14474;SDS011;7323;50.848;4.334;2023-03-01T17:52:20;8.90;;;7.17;;
14474;SDS011;7323;50.848;4.334;2023-03-01T17:54:48;10.93;;;7.47;;
14474;SDS011;7323;50.848;4.334;2023-03-01T17:57:14;12.10;;;7.87;;
14474;SDS011;7323;50.848;4.334;2023-03-01T17:59:40;10.07;;;7.20;;
14474;SDS011;7323;50.848;4.334;2023-03-01T18:02:06;10.07;;;7.60;;
14474;SDS011;7323;50.848;4.334;2023-03-01T18:04:34;10.17;;;7.83;;
14474;SDS011;7323;50.848;4.334;2023-03-01T18:07:03;12.17;;;7.87;;
14474;SDS011;7323;50.848;4.334;2023-03-01T18:09:38;12.87;;;7.80;;
14474;SDS011;7323;50.848;4.334;2023-03-01T18:12:15;11.13;;;7.37;;
14474;SDS011;7323;50.848;4.334;2023-03-01T18:14:43;11.90;;;7.73;;
14474;SDS011;7323;50.848;4.334;2023-03-01T18:17:10;15.60;;;7.67;;
14474;SDS011;7323;50.848;4.334;2023-03-01T18:19:37;10.10;;;7.13;;
14474;SDS011;7323;50.848;4.334;2023-03-01T18:22:05;14.93;;;8.27;;
14474;SDS011;7323;50.848;4.334;2023-03-01T18:24:32;11.47;;;7.50;;
14474;SDS011;7323;50.848;4.334;2023-03-01T18:27:00;13.93;;;7.67;;
14474;SDS011;7323;50.848;4.334;2023-03-01T18:29:26;11.47;;;7.73;;
14474;SDS011;7323;50.848;4.334;2023-03-01T18:31:52;12.13;;;7.67;;
14474;SDS011;7323;50.848;4.334;2023-03-01T18:34:23;10.20;;;7.50;;
14474;SDS011;7323;50.848;4.334;2023-03-01T18:36:52;10.67;;;7.63;;
14474;SDS011;7323;50.848;4.334;2023-03-01T18:39:30;9.77;;;7.53;;
14474;SDS011;7323;50.848;4.334;2023-03-01T18:41:56;10.37;;;7.17;;
14474;SDS011;7323;50.848;4.334;2023-03-01T18:44:22;13.67;;;8.23;;